createdAt,value
2022-11-21T00:01:19.917Z,99.90
2022-11-21T00:03:48.469Z,99.90
2022-11-21T00:06:17.641Z,99.90
2022-11-21T00:08:46.556Z,99.90
2022-11-21T00:11:15.356Z,99.90
2022-11-21T00:13:44.291Z,99.90
2022-11-21T00:16:15.963Z,99.80
2022-11-21T00:18:44.543Z,99.90
2022-11-21T00:21:16.569Z,99.90
2022-11-21T00:23:45.987Z,99.90
2022-11-21T00:26:16.816Z,99.90
2022-11-21T00:28:45.601Z,99.90
2022-11-21T00:31:24.273Z,99.90
2022-11-21T00:33:52.322Z,99.90
2022-11-21T00:36:20.424Z,99.90
2022-11-21T00:38:48.630Z,99.90
2022-11-21T00:41:16.824Z,99.90
2022-11-21T00:43:44.891Z,99.90
2022-11-21T00:46:12.990Z,99.90
2022-11-21T00:48:41.172Z,99.90
2022-11-21T00:51:09.277Z,99.90
2022-11-21T00:53:37.339Z,99.90
2022-11-21T00:56:05.558Z,99.90
2022-11-21T00:58:33.742Z,99.90
2022-11-21T01:01:12.114Z,99.90
2022-11-21T01:03:40.843Z,99.90
2022-11-21T01:06:12.885Z,99.90
2022-11-21T01:08:43.724Z,99.90
2022-11-21T01:11:16.380Z,99.90
2022-11-21T01:13:45.517Z,99.90
2022-11-21T01:16:17.698Z,99.90
2022-11-21T01:18:46.748Z,99.90
2022-11-21T01:21:19.390Z,99.90
2022-11-21T01:23:48.646Z,99.90
2022-11-21T01:26:24.773Z,99.90
2022-11-21T01:28:53.705Z,99.90
2022-11-21T01:31:28.382Z,99.90
2022-11-21T01:33:59.473Z,99.90
2022-11-21T01:36:33.436Z,99.90
2022-11-21T01:39:04.505Z,99.90
2022-11-21T01:41:37.288Z,99.90
2022-11-21T01:44:44.706Z,99.90
2022-11-21T01:47:13.418Z,99.90
2022-11-21T01:49:42.431Z,99.90
2022-11-21T01:52:28.395Z,99.90
2022-11-21T01:55:14.735Z,99.90
2022-11-21T01:57:46.538Z,99.90
2022-11-21T02:00:26.842Z,99.90
2022-11-21T02:03:05.641Z,99.90
2022-11-21T02:05:37.474Z,99.90
2022-11-21T02:08:13.251Z,99.90
2022-11-21T02:11:09.606Z,99.90
2022-11-21T02:13:37.492Z,99.90
2022-11-21T02:16:06.564Z,99.90
2022-11-21T02:18:34.520Z,99.90
2022-11-21T02:21:29.287Z,99.90
2022-11-21T02:24:21.174Z,99.90
2022-11-21T02:26:49.624Z,99.90
2022-11-21T02:29:17.636Z,99.90
2022-11-21T02:31:45.391Z,99.90
2022-11-21T02:34:13.307Z,99.90
2022-11-21T02:36:46.607Z,99.90
2022-11-21T02:39:27.456Z,99.90
2022-11-21T02:42:05.648Z,99.90
2022-11-21T02:44:43.747Z,99.90
2022-11-21T02:47:11.474Z,99.90
2022-11-21T02:49:54.074Z,99.90
2022-11-21T02:52:21.863Z,99.90
2022-11-21T02:54:49.676Z,99.90
2022-11-21T02:57:17.393Z,99.90
2022-11-21T02:59:45.168Z,99.90
2022-11-21T03:02:12.956Z,99.90
2022-11-21T03:04:40.718Z,99.90
2022-11-21T03:07:08.623Z,99.90
2022-11-21T03:10:16.267Z,99.90
2022-11-21T03:12:44.262Z,99.90
2022-11-21T03:15:15.342Z,99.90
2022-11-21T03:17:43.650Z,99.90
2022-11-21T03:20:11.831Z,99.90
2022-11-21T03:22:39.647Z,99.90
2022-11-21T03:25:07.851Z,99.90
2022-11-21T03:27:35.599Z,99.90
2022-11-21T03:30:03.766Z,99.90
2022-11-21T03:32:31.497Z,99.90
2022-11-21T03:34:59.238Z,99.90
2022-11-21T03:37:26.953Z,99.90
2022-11-21T03:39:54.722Z,99.90
2022-11-21T03:42:22.452Z,99.90
2022-11-21T03:44:50.192Z,99.90
2022-11-21T03:47:17.933Z,99.90
2022-11-21T03:49:45.699Z,99.90
2022-11-21T03:52:13.401Z,99.90
2022-11-21T03:54:41.258Z,99.90
2022-11-21T03:57:09.020Z,99.90
2022-11-21T03:59:36.792Z,99.90
2022-11-21T04:02:04.617Z,99.90
2022-11-21T04:04:32.443Z,99.90
2022-11-21T04:07:00.308Z,99.90
2022-11-21T04:09:28.117Z,99.90
2022-11-21T04:11:55.834Z,99.90
2022-11-21T04:14:23.596Z,99.90
2022-11-21T04:16:51.342Z,99.90
2022-11-21T04:19:19.079Z,99.90
2022-11-21T04:21:46.805Z,99.90
2022-11-21T04:24:14.624Z,99.90
2022-11-21T04:26:42.301Z,99.90
2022-11-21T04:29:10.178Z,99.90
2022-11-21T04:31:37.898Z,99.90
2022-11-21T04:34:05.667Z,99.90
2022-11-21T04:36:33.427Z,99.90
2022-11-21T04:39:01.242Z,99.90
2022-11-21T04:41:29.076Z,99.90
2022-11-21T04:43:56.804Z,99.90
2022-11-21T04:46:24.596Z,99.90
2022-11-21T04:48:52.345Z,99.90
2022-11-21T04:51:20.108Z,99.90
2022-11-21T04:53:47.833Z,99.90
2022-11-21T04:56:16.624Z,99.90
2022-11-21T04:58:44.951Z,99.90
2022-11-21T05:01:12.876Z,99.90
2022-11-21T05:03:40.710Z,99.90
2022-11-21T05:06:08.782Z,99.90
2022-11-21T05:08:36.503Z,99.90
2022-11-21T05:11:23.047Z,99.90
2022-11-21T05:13:54.364Z,99.90
2022-11-21T05:16:22.144Z,99.90
2022-11-21T05:18:49.907Z,99.90
2022-11-21T05:21:17.710Z,99.90
2022-11-21T05:23:45.523Z,99.90
2022-11-21T05:26:13.298Z,99.90
2022-11-21T05:28:41.101Z,99.90
2022-11-21T05:31:08.876Z,99.90
2022-11-21T05:33:36.624Z,99.90
2022-11-21T05:36:04.887Z,99.90
2022-11-21T05:38:32.650Z,99.90
2022-11-21T05:41:00.428Z,99.90
2022-11-21T05:43:46.457Z,99.90
2022-11-21T05:46:21.834Z,99.90
2022-11-21T05:48:50.755Z,99.90
2022-11-21T05:51:19.574Z,99.90
2022-11-21T05:53:48.471Z,99.90
2022-11-21T05:56:19.595Z,99.90
2022-11-21T05:58:47.443Z,99.90
2022-11-21T06:01:15.939Z,99.90
2022-11-21T06:03:43.734Z,99.90
2022-11-21T06:06:19.680Z,99.90
2022-11-21T06:08:49.967Z,99.90
2022-11-21T06:11:17.962Z,99.90
2022-11-21T06:13:46.008Z,99.90
2022-11-21T06:16:17.187Z,99.90
2022-11-21T06:18:48.179Z,99.90
2022-11-21T06:21:25.108Z,99.90
2022-11-21T06:23:56.487Z,99.90
2022-11-21T06:26:27.835Z,99.90
2022-11-21T06:28:55.727Z,99.90
2022-11-21T06:31:27.085Z,99.90
2022-11-21T06:33:58.151Z,99.90
2022-11-21T06:36:27.009Z,99.90
2022-11-21T06:38:56.579Z,99.90
2022-11-21T06:41:27.204Z,99.90
2022-11-21T06:43:54.962Z,99.90
2022-11-21T06:46:22.758Z,99.90
2022-11-21T06:48:50.492Z,99.90
2022-11-21T06:51:20.198Z,99.90
2022-11-21T06:54:01.641Z,99.90
2022-11-21T06:56:31.539Z,99.90
2022-11-21T06:58:59.887Z,99.90
2022-11-21T07:01:27.961Z,99.90
2022-11-21T07:03:56.190Z,99.90
2022-11-21T07:06:24.429Z,99.90
2022-11-21T07:11:45.081Z,99.90
2022-11-21T07:14:12.878Z,99.90
2022-11-21T07:16:40.632Z,99.90
2022-11-21T07:19:08.354Z,99.90
2022-11-21T07:21:36.109Z,99.90
2022-11-21T07:24:04.354Z,99.90
2022-11-21T07:26:32.090Z,99.90
2022-11-21T07:28:59.970Z,99.90
2022-11-21T07:31:27.741Z,99.90
2022-11-21T07:33:55.595Z,99.90
2022-11-21T07:36:23.461Z,99.90
2022-11-21T07:38:51.262Z,99.90
2022-11-21T07:41:19.029Z,99.90
2022-11-21T07:43:46.776Z,99.90
2022-11-21T07:46:14.540Z,99.90
2022-11-21T07:48:43.002Z,99.90
2022-11-21T07:51:11.205Z,99.90
2022-11-21T07:53:39.027Z,99.90
2022-11-21T07:56:09.561Z,99.90
2022-11-21T07:58:37.392Z,99.90
2022-11-21T08:01:07.113Z,99.90
2022-11-21T08:03:35.211Z,99.90
2022-11-21T08:06:04.984Z,99.90
2022-11-21T08:08:32.764Z,99.90
2022-11-21T08:11:06.056Z,99.90
2022-11-21T08:13:35.401Z,99.90
2022-11-21T08:16:04.974Z,99.90
2022-11-21T08:18:33.299Z,99.90
2022-11-21T08:21:05.196Z,99.90
2022-11-21T08:23:33.018Z,99.90
2022-11-21T08:26:01.048Z,99.90
2022-11-21T08:28:29.017Z,99.90
2022-11-21T08:30:56.895Z,99.50
2022-11-21T08:33:24.608Z,99.90
2022-11-21T08:35:52.377Z,99.70
2022-11-21T08:38:20.122Z,98.30
2022-11-21T08:41:07.840Z,99.70
2022-11-21T08:43:35.586Z,98.90
2022-11-21T08:46:03.401Z,97.70
2022-11-21T08:48:31.227Z,97.60
2022-11-21T08:50:58.993Z,99.10
2022-11-21T08:53:27.097Z,99.10
2022-11-21T08:55:55.022Z,98.40
2022-11-21T08:58:22.749Z,98.40
2022-11-21T09:00:50.522Z,96.60
2022-11-21T09:03:23.626Z,96.70
2022-11-21T09:05:55.740Z,97.40
2022-11-21T09:08:23.979Z,95.00
2022-11-21T09:10:52.308Z,95.80
2022-11-21T09:13:20.135Z,97.00
2022-11-21T09:16:06.823Z,97.00
2022-11-21T09:18:34.861Z,95.70
2022-11-21T09:21:02.598Z,97.30
2022-11-21T09:23:30.324Z,95.20
2022-11-21T09:26:00.483Z,93.50
2022-11-21T09:28:28.261Z,94.90
2022-11-21T09:30:56.052Z,95.90
2022-11-21T09:33:24.530Z,92.60
2022-11-21T09:35:52.370Z,93.20
2022-11-21T09:38:24.026Z,91.30
2022-11-21T09:40:56.552Z,92.30
2022-11-21T09:43:39.160Z,92.00
2022-11-21T09:46:17.626Z,92.40
2022-11-21T09:49:05.202Z,89.90
2022-11-21T09:51:34.630Z,91.70
2022-11-21T09:54:29.027Z,93.30
2022-11-21T09:56:56.861Z,92.80
2022-11-21T09:59:37.555Z,92.30
2022-11-21T10:02:21.480Z,91.00
2022-11-21T10:04:51.344Z,90.60
2022-11-21T10:07:29.085Z,90.70
2022-11-21T10:10:56.726Z,90.30
2022-11-21T10:14:07.421Z,89.70
2022-11-21T10:17:08.424Z,89.00
2022-11-21T10:19:54.275Z,83.40
2022-11-21T10:22:49.303Z,87.00
2022-11-21T10:25:28.076Z,85.90
2022-11-21T10:28:58.776Z,84.90
2022-11-21T10:31:31.332Z,88.20
2022-11-21T10:34:00.405Z,91.10
2022-11-21T10:36:36.676Z,92.80
2022-11-21T10:39:33.422Z,94.10
2022-11-21T10:42:24.408Z,95.80
2022-11-21T10:45:11.357Z,97.20
2022-11-21T10:47:39.126Z,96.60
2022-11-21T10:50:09.843Z,97.80
2022-11-21T10:53:01.541Z,98.30
2022-11-21T10:55:29.332Z,97.90
2022-11-21T10:57:57.096Z,97.80
2022-11-21T11:00:27.519Z,98.60
2022-11-21T11:03:16.553Z,98.40
2022-11-21T11:05:59.534Z,96.60
2022-11-21T11:08:28.743Z,98.10
2022-11-21T11:11:07.571Z,99.20
2022-11-21T11:13:53.473Z,99.40
2022-11-21T11:16:22.591Z,99.60
2022-11-21T11:19:00.693Z,99.90
2022-11-21T11:21:47.724Z,99.90
2022-11-21T11:24:15.404Z,99.90
2022-11-21T11:26:49.537Z,99.90
2022-11-21T11:29:30.276Z,99.90
2022-11-21T11:32:19.454Z,99.90
2022-11-21T11:35:03.131Z,99.90
2022-11-21T11:37:41.694Z,99.60
2022-11-21T11:40:40.148Z,93.40
2022-11-21T11:44:04.984Z,85.80
2022-11-21T11:47:20.869Z,86.10
2022-11-21T11:50:26.896Z,88.10
2022-11-21T11:53:35.084Z,84.00
2022-11-21T11:56:19.129Z,77.80
2022-11-21T11:59:01.183Z,80.30
2022-11-21T12:01:49.843Z,79.20
2022-11-21T12:04:22.749Z,78.30
2022-11-21T12:08:19.902Z,80.70
2022-11-21T12:11:12.458Z,81.30
2022-11-21T12:13:41.512Z,77.80
2022-11-21T12:16:14.494Z,82.70
2022-11-21T12:19:14.047Z,86.20
2022-11-21T12:21:42.096Z,86.30
2022-11-21T12:24:12.264Z,86.40
2022-11-21T12:27:31.269Z,86.30
2022-11-21T12:30:35.866Z,78.90
2022-11-21T12:33:17.672Z,72.80
2022-11-21T12:36:17.938Z,74.90
2022-11-21T12:39:12.475Z,74.90
2022-11-21T12:42:13.096Z,76.90
2022-11-21T12:44:59.980Z,79.50
2022-11-21T12:48:11.965Z,81.00
2022-11-21T12:51:30.660Z,82.60
2022-11-21T12:54:33.288Z,74.70
2022-11-21T12:57:11.666Z,74.90
2022-11-21T13:00:13.936Z,75.30
2022-11-21T13:03:18.190Z,73.40
2022-11-21T13:05:53.971Z,70.10
2022-11-21T13:08:29.768Z,64.00
2022-11-21T13:12:14.441Z,63.60
2022-11-21T13:15:16.396Z,70.40
2022-11-21T13:18:13.848Z,68.00
2022-11-21T13:20:52.017Z,70.10
2022-11-21T13:23:43.125Z,68.60
2022-11-21T13:26:25.835Z,65.40
2022-11-21T13:29:14.406Z,65.10
2022-11-21T13:31:43.668Z,61.20
2022-11-21T13:34:41.322Z,65.70
2022-11-21T13:37:09.189Z,61.00
2022-11-21T13:39:38.442Z,64.20
2022-11-21T13:42:30.147Z,62.80
2022-11-21T13:44:58.957Z,61.20
2022-11-21T13:47:26.632Z,61.40
2022-11-21T13:50:23.518Z,60.80
2022-11-21T13:53:58.058Z,60.30
2022-11-21T13:56:41.405Z,55.50
2022-11-21T13:59:37.532Z,58.90
2022-11-21T14:02:41.778Z,59.40
2022-11-21T14:05:39.960Z,61.50
2022-11-21T14:08:25.318Z,59.90
2022-11-21T14:10:56.165Z,62.50
2022-11-21T14:13:37.245Z,64.90
2022-11-21T14:16:19.882Z,64.20
2022-11-21T14:18:48.236Z,65.20
2022-11-21T14:21:28.557Z,65.20
2022-11-21T14:24:06.521Z,64.30
2022-11-21T14:26:42.957Z,64.90
2022-11-21T14:29:40.764Z,65.40
2022-11-21T14:32:15.521Z,64.40
2022-11-21T14:34:43.337Z,66.00
2022-11-21T14:37:13.583Z,66.60
2022-11-21T14:39:44.830Z,66.20
2022-11-21T14:42:17.331Z,66.60
2022-11-21T14:44:46.301Z,66.70
2022-11-21T14:47:25.762Z,67.00
2022-11-21T14:49:58.541Z,67.00
2022-11-21T14:52:33.988Z,67.30
2022-11-21T14:55:30.544Z,67.30
2022-11-21T14:58:02.948Z,66.90
2022-11-21T15:03:23.250Z,67.50
2022-11-21T15:06:10.685Z,68.50
2022-11-21T15:11:38.923Z,70.90
2022-11-21T15:14:43.469Z,72.50
2022-11-21T15:17:20.687Z,73.30
2022-11-21T15:20:18.528Z,74.00
2022-11-21T15:22:48.114Z,75.30
2022-11-21T15:25:22.854Z,76.00
2022-11-21T15:27:53.046Z,76.60
2022-11-21T15:30:26.276Z,76.50
2022-11-21T15:33:10.761Z,76.20
2022-11-21T15:35:38.416Z,75.00
2022-11-21T15:38:40.558Z,74.10
2022-11-21T15:41:10.149Z,72.40
2022-11-21T15:43:51.549Z,72.70
2022-11-21T15:46:25.194Z,72.10
2022-11-21T15:49:31.067Z,71.70
2022-11-21T15:52:10.614Z,71.20
2022-11-21T15:54:38.345Z,71.50
2022-11-21T15:57:06.473Z,71.30
2022-11-21T15:59:36.499Z,72.00
2022-11-21T16:02:05.663Z,71.70
2022-11-21T16:04:33.641Z,71.80
2022-11-21T16:07:01.516Z,71.70
2022-11-21T16:09:29.797Z,71.80
2022-11-21T16:11:57.678Z,71.80
2022-11-21T16:14:25.657Z,72.00
2022-11-21T16:16:53.404Z,71.90
2022-11-21T16:19:21.143Z,72.20
2022-11-21T16:21:48.939Z,72.30
2022-11-21T16:24:16.775Z,72.60
2022-11-21T16:26:44.583Z,73.10
2022-11-21T16:29:12.435Z,73.30
2022-11-21T16:31:40.250Z,73.50
2022-11-21T16:34:08.368Z,73.50
2022-11-21T16:36:36.352Z,73.80
2022-11-21T16:39:09.935Z,74.20
2022-11-21T16:41:41.044Z,74.50
2022-11-21T16:44:16.477Z,74.90
2022-11-21T16:46:48.219Z,75.40
2022-11-21T16:49:16.198Z,75.30
2022-11-21T16:51:44.095Z,75.00
2022-11-21T16:54:11.830Z,74.50
2022-11-21T16:56:39.611Z,74.20
2022-11-21T16:59:08.552Z,74.20
2022-11-21T17:01:36.479Z,73.60
2022-11-21T17:04:04.617Z,73.40
2022-11-21T17:06:32.456Z,74.20
2022-11-21T17:09:01.984Z,73.20
2022-11-21T17:11:32.149Z,74.10
2022-11-21T17:14:03.104Z,73.70
2022-11-21T17:16:32.651Z,74.00
2022-11-21T17:19:02.457Z,74.30
2022-11-21T17:21:30.956Z,74.40
2022-11-21T17:23:59.487Z,74.40
2022-11-21T17:26:29.925Z,75.10
2022-11-21T17:29:00.975Z,74.30
2022-11-21T17:31:29.624Z,74.00
2022-11-21T17:33:59.019Z,74.00
2022-11-21T17:36:29.243Z,74.20
2022-11-21T17:38:57.187Z,73.80
2022-11-21T17:41:27.436Z,73.70
2022-11-21T17:43:59.688Z,73.80
2022-11-21T17:46:28.461Z,72.90
2022-11-21T17:48:59.099Z,73.20
2022-11-21T17:51:32.371Z,73.10
2022-11-21T17:54:01.733Z,72.90
2022-11-21T17:56:32.876Z,72.90
2022-11-21T17:59:01.147Z,72.80
2022-11-21T18:01:29.506Z,72.40
2022-11-21T18:04:13.364Z,72.40
2022-11-21T18:06:42.612Z,72.60
2022-11-21T18:09:11.955Z,72.60
2022-11-21T18:11:40.972Z,72.40
2022-11-21T18:14:12.469Z,72.50
2022-11-21T18:16:43.667Z,73.00
2022-11-21T18:19:14.415Z,72.60
2022-11-21T18:21:42.465Z,72.60
2022-11-21T18:24:10.651Z,72.40
2022-11-21T18:26:39.862Z,73.00
2022-11-21T18:31:57.970Z,72.70
2022-11-21T18:34:50.961Z,73.00
2022-11-21T18:37:18.716Z,73.00
2022-11-21T18:39:46.456Z,73.80
2022-11-21T18:42:14.206Z,73.90
2022-11-21T18:44:41.943Z,73.60
2022-11-21T18:47:19.965Z,74.10
2022-11-21T18:49:48.875Z,73.70
2022-11-21T18:52:16.713Z,74.00
2022-11-21T18:54:45.299Z,74.40
2022-11-21T18:57:13.175Z,74.20
2022-11-21T18:59:40.964Z,73.90
2022-11-21T19:02:10.360Z,74.10
2022-11-21T19:04:38.151Z,74.00
2022-11-21T19:07:05.964Z,74.20
2022-11-21T19:09:34.571Z,74.30
2022-11-21T19:12:02.605Z,74.20
2022-11-21T19:14:30.626Z,74.10
2022-11-21T19:16:58.618Z,74.50
2022-11-21T19:19:36.184Z,74.20
2022-11-21T19:22:06.200Z,73.90
2022-11-21T19:24:33.999Z,73.80
2022-11-21T19:27:02.117Z,73.80
2022-11-21T19:29:30.448Z,73.80
2022-11-21T19:31:58.604Z,73.60
2022-11-21T19:34:26.408Z,73.50
2022-11-21T19:36:54.343Z,73.80
2022-11-21T19:39:22.099Z,74.00
2022-11-21T19:41:50.157Z,74.30
2022-11-21T19:44:17.933Z,74.50
2022-11-21T19:46:45.728Z,74.40
2022-11-21T19:49:13.596Z,74.70
2022-11-21T19:51:42.513Z,74.80
2022-11-21T19:54:13.663Z,74.60
2022-11-21T19:56:41.497Z,74.50
2022-11-21T19:59:12.732Z,74.30
2022-11-21T20:01:41.131Z,74.60
2022-11-21T20:04:11.105Z,75.10
2022-11-21T20:06:42.372Z,75.40
2022-11-21T20:09:19.375Z,75.20
2022-11-21T20:11:49.966Z,74.80
2022-11-21T20:14:22.385Z,75.00
2022-11-21T20:16:52.865Z,75.40
2022-11-21T20:19:24.245Z,75.50
2022-11-21T20:21:52.726Z,75.40
2022-11-21T20:24:20.922Z,75.30
2022-11-21T20:26:48.913Z,75.60
2022-11-21T20:29:16.795Z,75.80
2022-11-21T20:31:48.560Z,75.80
2022-11-21T20:34:16.743Z,75.50
2022-11-21T20:36:45.361Z,75.60
2022-11-21T20:39:16.783Z,75.70
2022-11-21T20:41:46.657Z,75.60
2022-11-21T20:47:09.665Z,75.70
2022-11-21T20:49:37.527Z,75.50
2022-11-21T20:54:53.175Z,75.30
2022-11-21T20:57:20.942Z,75.10
2022-11-21T20:59:48.708Z,75.30
2022-11-21T21:02:16.509Z,76.10
2022-11-21T21:04:44.267Z,75.50
2022-11-21T21:07:12.336Z,75.50
2022-11-21T21:09:40.258Z,75.80
2022-11-21T21:12:08.903Z,75.90
2022-11-21T21:14:36.766Z,76.00
2022-11-21T21:17:04.591Z,76.30
2022-11-21T21:19:32.674Z,76.70
2022-11-21T21:22:00.635Z,76.90
2022-11-21T21:24:28.437Z,77.00
2022-11-21T21:26:56.210Z,76.90
2022-11-21T21:29:24.000Z,76.80
2022-11-21T21:31:52.733Z,76.70
2022-11-21T21:34:22.323Z,76.80
2022-11-21T21:36:51.077Z,76.80
2022-11-21T21:39:19.326Z,76.60
2022-11-21T21:41:47.911Z,76.60
2022-11-21T21:44:16.569Z,77.00
2022-11-21T21:46:45.054Z,77.30
2022-11-21T21:49:13.392Z,77.10
2022-11-21T21:51:41.579Z,77.20
2022-11-21T21:54:20.533Z,77.20
2022-11-21T21:56:49.744Z,77.50
2022-11-21T21:59:18.420Z,77.10
2022-11-21T22:01:46.511Z,77.00
2022-11-21T22:04:14.627Z,76.40
2022-11-21T22:06:42.447Z,76.50
2022-11-21T22:09:10.416Z,76.20
2022-11-21T22:11:39.281Z,76.10
2022-11-21T22:14:12.459Z,77.10
2022-11-21T22:16:41.270Z,77.40
2022-11-21T22:19:09.841Z,77.20
2022-11-21T22:21:39.157Z,77.00
2022-11-21T22:24:25.501Z,77.70
2022-11-21T22:26:53.990Z,77.70
2022-11-21T22:29:21.736Z,77.90
2022-11-21T22:31:50.927Z,77.80
2022-11-21T22:34:18.851Z,77.60
2022-11-21T22:36:47.006Z,78.20
2022-11-21T22:39:15.833Z,78.60
2022-11-21T22:41:43.707Z,78.90
2022-11-21T22:44:11.655Z,79.40
2022-11-21T22:46:39.459Z,79.80
2022-11-21T22:49:07.189Z,80.30
2022-11-21T22:51:35.107Z,80.80
2022-11-21T22:54:02.883Z,81.20
2022-11-21T22:56:30.694Z,81.80
2022-11-21T22:58:58.427Z,82.20
2022-11-21T23:01:26.858Z,83.20
2022-11-21T23:03:55.797Z,84.20
2022-11-21T23:06:26.496Z,85.60
2022-11-21T23:08:57.672Z,86.30
2022-11-21T23:11:28.853Z,86.60
2022-11-21T23:13:57.638Z,86.80
2022-11-21T23:16:26.282Z,88.20
2022-11-21T23:18:56.719Z,87.90
2022-11-21T23:21:24.806Z,88.70
2022-11-21T23:23:52.796Z,89.40
2022-11-21T23:26:20.686Z,89.50
2022-11-21T23:28:48.668Z,89.70
2022-11-21T23:31:17.168Z,90.10
2022-11-21T23:33:45.009Z,90.90
2022-11-21T23:36:12.838Z,91.70
2022-11-21T23:38:41.261Z,92.60
2022-11-21T23:41:09.177Z,93.90
2022-11-21T23:43:37.048Z,95.20
2022-11-21T23:46:04.880Z,96.60
2022-11-21T23:48:32.698Z,97.90
2022-11-21T23:51:00.527Z,98.70
2022-11-21T23:53:28.417Z,98.50
2022-11-21T23:55:56.310Z,98.90
2022-11-21T23:58:24.099Z,99.20
